sensor_id;sensor_type;location;lat;lon;timestamp;P1;durP1;ratioP1;P2;durP2;ratioP2
51384;SDS011;37478;55.682;37.462;2023-11-18T00:01:43;9.98;;;3.67;;
51384;SDS011;37478;55.682;37.462;2023-11-18T00:04:08;7.47;;;4.40;;
51384;SDS011;37478;55.682;37.462;2023-11-18T00:06:40;7.63;;;3.67;;
51384;SDS011;37478;55.682;37.462;2023-11-18T00:09:05;9.98;;;3.60;;
51384;SDS011;37478;55.682;37.462;2023-11-18T00:11:31;6.00;;;3.20;;
51384;SDS011;37478;55.682;37.462;2023-11-18T00:13:56;7.18;;;3.70;;
51384;SDS011;37478;55.682;37.462;2023-11-18T00:16:22;6.68;;;3.20;;
51384;SDS011;37478;55.682;37.462;2023-11-18T00:18:47;7.28;;;3.25;;
51384;SDS011;37478;55.682;37.462;2023-11-18T00:21:13;9.95;;;4.18;;
51384;SDS011;37478;55.682;37.462;2023-11-18T00:23:38;8.68;;;4.03;;
51384;SDS011;37478;55.682;37.462;2023-11-18T00:26:04;11.00;;;4.78;;
51384;SDS011;37478;55.682;37.462;2023-11-18T00:28:32;5.93;;;3.33;;
51384;SDS011;37478;55.682;37.462;2023-11-18T00:30:57;5.30;;;3.25;;
51384;SDS011;37478;55.682;37.462;2023-11-18T00:33:22;8.32;;;3.80;;
51384;SDS011;37478;55.682;37.462;2023-11-18T00:35:48;12.57;;;3.78;;
51384;SDS011;37478;55.682;37.462;2023-11-18T00:38:13;7.97;;;4.45;;
51384;SDS011;37478;55.682;37.462;2023-11-18T00:40:38;11.98;;;4.78;;
51384;SDS011;37478;55.682;37.462;2023-11-18T00:43:03;9.30;;;4.60;;
51384;SDS011;37478;55.682;37.462;2023-11-18T00:45:29;9.52;;;4.57;;
51384;SDS011;37478;55.682;37.462;2023-11-18T00:47:54;11.90;;;5.68;;
51384;SDS011;37478;55.682;37.462;2023-11-18T00:50:19;12.23;;;4.35;;
51384;SDS011;37478;55.682;37.462;2023-11-18T00:52:45;8.00;;;4.47;;
51384;SDS011;37478;55.682;37.462;2023-11-18T00:55:14;10.63;;;5.55;;
51384;SDS011;37478;55.682;37.462;2023-11-18T00:57:43;13.30;;;4.88;;
51384;SDS011;37478;55.682;37.462;2023-11-18T01:00:08;9.13;;;4.88;;
51384;SDS011;37478;55.682;37.462;2023-11-18T01:02:39;7.57;;;3.88;;
51384;SDS011;37478;55.682;37.462;2023-11-18T01:05:04;8.88;;;4.15;;
51384;SDS011;37478;55.682;37.462;2023-11-18T01:07:29;10.95;;;4.82;;
51384;SDS011;37478;55.682;37.462;2023-11-18T01:09:55;10.98;;;5.40;;
51384;SDS011;37478;55.682;37.462;2023-11-18T01:12:20;12.25;;;5.38;;
51384;SDS011;37478;55.682;37.462;2023-11-18T01:14:45;9.88;;;5.38;;
51384;SDS011;37478;55.682;37.462;2023-11-18T01:17:11;9.57;;;4.85;;
51384;SDS011;37478;55.682;37.462;2023-11-18T01:19:36;14.70;;;5.78;;
51384;SDS011;37478;55.682;37.462;2023-11-18T01:22:01;13.57;;;6.70;;
51384;SDS011;37478;55.682;37.462;2023-11-18T01:24:30;14.85;;;7.18;;
51384;SDS011;37478;55.682;37.462;2023-11-18T01:26:56;16.92;;;7.28;;
51384;SDS011;37478;55.682;37.462;2023-11-18T01:29:21;15.65;;;7.28;;
51384;SDS011;37478;55.682;37.462;2023-11-18T01:31:47;10.98;;;7.18;;
51384;SDS011;37478;55.682;37.462;2023-11-18T01:34:12;21.98;;;10.82;;
51384;SDS011;37478;55.682;37.462;2023-11-18T01:36:38;28.48;;;12.32;;
51384;SDS011;37478;55.682;37.462;2023-11-18T01:39:03;33.58;;;14.30;;
51384;SDS011;37478;55.682;37.462;2023-11-18T01:41:29;40.33;;;15.48;;
51384;SDS011;37478;55.682;37.462;2023-11-18T01:43:57;29.58;;;13.80;;
51384;SDS011;37478;55.682;37.462;2023-11-18T01:46:24;25.92;;;13.07;;
51384;SDS011;37478;55.682;37.462;2023-11-18T01:48:50;23.92;;;11.90;;
51384;SDS011;37478;55.682;37.462;2023-11-18T01:51:16;30.42;;;11.77;;
51384;SDS011;37478;55.682;37.462;2023-11-18T01:53:44;23.67;;;11.32;;
51384;SDS011;37478;55.682;37.462;2023-11-18T01:56:12;25.70;;;11.25;;
51384;SDS011;37478;55.682;37.462;2023-11-18T01:58:38;21.20;;;10.32;;
51384;SDS011;37478;55.682;37.462;2023-11-18T02:01:03;24.95;;;10.98;;
51384;SDS011;37478;55.682;37.462;2023-11-18T02:03:33;25.08;;;9.65;;
51384;SDS011;37478;55.682;37.462;2023-11-18T02:05:58;24.67;;;9.23;;
51384;SDS011;37478;55.682;37.462;2023-11-18T02:08:23;19.95;;;10.85;;
51384;SDS011;37478;55.682;37.462;2023-11-18T02:11:00;17.42;;;8.35;;
51384;SDS011;37478;55.682;37.462;2023-11-18T02:13:27;19.75;;;8.63;;
51384;SDS011;37478;55.682;37.462;2023-11-18T02:15:55;23.02;;;9.27;;
51384;SDS011;37478;55.682;37.462;2023-11-18T02:18:23;15.45;;;9.75;;
51384;SDS011;37478;55.682;37.462;2023-11-18T02:20:49;13.88;;;8.43;;
51384;SDS011;37478;55.682;37.462;2023-11-18T02:23:14;21.42;;;8.98;;
51384;SDS011;37478;55.682;37.462;2023-11-18T02:25:45;16.33;;;8.18;;
51384;SDS011;37478;55.682;37.462;2023-11-18T02:28:11;17.75;;;8.50;;
51384;SDS011;37478;55.682;37.462;2023-11-18T02:30:36;19.27;;;8.25;;
51384;SDS011;37478;55.682;37.462;2023-11-18T02:33:03;18.10;;;7.82;;
51384;SDS011;37478;55.682;37.462;2023-11-18T02:35:34;15.90;;;8.43;;
51384;SDS011;37478;55.682;37.462;2023-11-18T02:38:02;17.13;;;8.50;;
51384;SDS011;37478;55.682;37.462;2023-11-18T02:40:34;16.13;;;7.10;;
51384;SDS011;37478;55.682;37.462;2023-11-18T02:43:00;18.70;;;8.05;;
51384;SDS011;37478;55.682;37.462;2023-11-18T02:45:26;13.43;;;6.65;;
51384;SDS011;37478;55.682;37.462;2023-11-18T02:47:52;13.07;;;7.65;;
51384;SDS011;37478;55.682;37.462;2023-11-18T02:50:22;12.63;;;6.63;;
51384;SDS011;37478;55.682;37.462;2023-11-18T02:52:47;18.05;;;7.22;;
51384;SDS011;37478;55.682;37.462;2023-11-18T02:55:13;19.60;;;7.18;;
51384;SDS011;37478;55.682;37.462;2023-11-18T02:57:39;15.40;;;6.40;;
51384;SDS011;37478;55.682;37.462;2023-11-18T03:00:04;16.05;;;6.25;;
51384;SDS011;37478;55.682;37.462;2023-11-18T03:02:30;12.23;;;6.15;;
51384;SDS011;37478;55.682;37.462;2023-11-18T03:04:58;15.70;;;8.75;;
51384;SDS011;37478;55.682;37.462;2023-11-18T03:07:24;10.77;;;5.97;;
51384;SDS011;37478;55.682;37.462;2023-11-18T03:09:52;16.55;;;5.60;;
51384;SDS011;37478;55.682;37.462;2023-11-18T03:12:17;12.32;;;5.72;;
51384;SDS011;37478;55.682;37.462;2023-11-18T03:14:42;12.52;;;6.43;;
51384;SDS011;37478;55.682;37.462;2023-11-18T03:17:08;11.82;;;5.38;;
51384;SDS011;37478;55.682;37.462;2023-11-18T03:19:35;11.32;;;5.65;;
51384;SDS011;37478;55.682;37.462;2023-11-18T03:22:00;9.93;;;5.00;;
51384;SDS011;37478;55.682;37.462;2023-11-18T03:24:26;9.85;;;5.30;;
51384;SDS011;37478;55.682;37.462;2023-11-18T03:26:54;12.43;;;5.55;;
51384;SDS011;37478;55.682;37.462;2023-11-18T03:29:19;10.80;;;4.90;;
51384;SDS011;37478;55.682;37.462;2023-11-18T03:31:44;14.63;;;5.55;;
51384;SDS011;37478;55.682;37.462;2023-11-18T03:34:13;7.55;;;5.38;;
51384;SDS011;37478;55.682;37.462;2023-11-18T03:36:38;10.10;;;6.07;;
51384;SDS011;37478;55.682;37.462;2023-11-18T03:39:04;11.68;;;4.90;;
51384;SDS011;37478;55.682;37.462;2023-11-18T03:41:29;14.50;;;5.28;;
51384;SDS011;37478;55.682;37.462;2023-11-18T03:43:55;11.88;;;4.95;;
51384;SDS011;37478;55.682;37.462;2023-11-18T03:46:20;13.73;;;5.13;;
51384;SDS011;37478;55.682;37.462;2023-11-18T03:48:45;11.75;;;5.15;;
51384;SDS011;37478;55.682;37.462;2023-11-18T03:51:11;9.70;;;4.75;;
51384;SDS011;37478;55.682;37.462;2023-11-18T03:53:36;8.48;;;5.13;;
51384;SDS011;37478;55.682;37.462;2023-11-18T03:56:01;9.20;;;5.10;;
51384;SDS011;37478;55.682;37.462;2023-11-18T03:58:29;9.85;;;5.22;;
51384;SDS011;37478;55.682;37.462;2023-11-18T04:00:57;10.98;;;6.35;;
51384;SDS011;37478;55.682;37.462;2023-11-18T04:03:23;7.07;;;4.15;;
51384;SDS011;37478;55.682;37.462;2023-11-18T04:05:48;16.13;;;5.53;;
51384;SDS011;37478;55.682;37.462;2023-11-18T04:08:13;15.90;;;6.10;;
51384;SDS011;37478;55.682;37.462;2023-11-18T04:10:39;7.00;;;4.57;;
51384;SDS011;37478;55.682;37.462;2023-11-18T04:13:04;9.88;;;4.18;;
51384;SDS011;37478;55.682;37.462;2023-11-18T04:15:29;7.90;;;3.95;;
51384;SDS011;37478;55.682;37.462;2023-11-18T04:17:55;9.77;;;4.45;;
51384;SDS011;37478;55.682;37.462;2023-11-18T04:20:20;6.63;;;3.88;;
51384;SDS011;37478;55.682;37.462;2023-11-18T04:22:45;10.00;;;4.28;;
51384;SDS011;37478;55.682;37.462;2023-11-18T04:25:11;9.63;;;4.68;;
51384;SDS011;37478;55.682;37.462;2023-11-18T04:27:37;12.13;;;4.55;;
51384;SDS011;37478;55.682;37.462;2023-11-18T04:30:03;10.07;;;4.47;;
51384;SDS011;37478;55.682;37.462;2023-11-18T04:32:28;5.55;;;3.85;;
51384;SDS011;37478;55.682;37.462;2023-11-18T04:34:57;5.93;;;3.83;;
51384;SDS011;37478;55.682;37.462;2023-11-18T04:37:22;7.88;;;4.13;;
51384;SDS011;37478;55.682;37.462;2023-11-18T04:39:47;10.35;;;4.15;;
51384;SDS011;37478;55.682;37.462;2023-11-18T04:42:13;10.75;;;5.25;;
51384;SDS011;37478;55.682;37.462;2023-11-18T04:44:38;12.70;;;4.60;;
51384;SDS011;37478;55.682;37.462;2023-11-18T04:47:03;8.70;;;4.35;;
51384;SDS011;37478;55.682;37.462;2023-11-18T04:49:29;9.18;;;5.03;;
51384;SDS011;37478;55.682;37.462;2023-11-18T04:51:54;15.13;;;5.20;;
51384;SDS011;37478;55.682;37.462;2023-11-18T04:54:20;7.47;;;4.60;;
51384;SDS011;37478;55.682;37.462;2023-11-18T04:56:45;11.35;;;5.43;;
51384;SDS011;37478;55.682;37.462;2023-11-18T04:59:11;15.65;;;5.72;;
51384;SDS011;37478;55.682;37.462;2023-11-18T05:01:36;14.60;;;6.45;;
51384;SDS011;37478;55.682;37.462;2023-11-18T05:04:03;6.10;;;4.15;;
51384;SDS011;37478;55.682;37.462;2023-11-18T05:06:28;10.85;;;4.15;;
51384;SDS011;37478;55.682;37.462;2023-11-18T05:08:53;14.10;;;5.57;;
51384;SDS011;37478;55.682;37.462;2023-11-18T05:11:19;8.98;;;4.72;;
51384;SDS011;37478;55.682;37.462;2023-11-18T05:13:45;7.93;;;4.20;;
51384;SDS011;37478;55.682;37.462;2023-11-18T05:16:10;7.18;;;4.00;;
51384;SDS011;37478;55.682;37.462;2023-11-18T05:18:36;16.08;;;4.45;;
51384;SDS011;37478;55.682;37.462;2023-11-18T05:21:01;12.25;;;4.68;;
51384;SDS011;37478;55.682;37.462;2023-11-18T05:23:28;8.90;;;4.50;;
51384;SDS011;37478;55.682;37.462;2023-11-18T05:25:56;11.85;;;4.97;;
51384;SDS011;37478;55.682;37.462;2023-11-18T05:28:23;10.35;;;4.40;;
51384;SDS011;37478;55.682;37.462;2023-11-18T05:30:49;14.25;;;5.93;;
51384;SDS011;37478;55.682;37.462;2023-11-18T05:33:15;12.60;;;5.20;;
51384;SDS011;37478;55.682;37.462;2023-11-18T05:35:43;13.25;;;4.57;;
51384;SDS011;37478;55.682;37.462;2023-11-18T05:38:14;8.13;;;4.50;;
51384;SDS011;37478;55.682;37.462;2023-11-18T05:40:41;8.40;;;3.97;;
51384;SDS011;37478;55.682;37.462;2023-11-18T05:43:08;8.63;;;4.10;;
51384;SDS011;37478;55.682;37.462;2023-11-18T05:45:41;9.80;;;4.70;;
51384;SDS011;37478;55.682;37.462;2023-11-18T05:48:26;15.05;;;5.05;;
51384;SDS011;37478;55.682;37.462;2023-11-18T05:50:51;13.18;;;4.63;;
51384;SDS011;37478;55.682;37.462;2023-11-18T05:53:16;11.65;;;4.90;;
51384;SDS011;37478;55.682;37.462;2023-11-18T05:55:42;14.40;;;5.18;;
51384;SDS011;37478;55.682;37.462;2023-11-18T05:58:07;12.07;;;6.28;;
51384;SDS011;37478;55.682;37.462;2023-11-18T06:00:34;14.35;;;4.82;;
51384;SDS011;37478;55.682;37.462;2023-11-18T06:02:59;7.70;;;4.75;;
51384;SDS011;37478;55.682;37.462;2023-11-18T06:05:25;7.70;;;4.30;;
51384;SDS011;37478;55.682;37.462;2023-11-18T06:07:51;6.75;;;4.20;;
51384;SDS011;37478;55.682;37.462;2023-11-18T06:10:16;6.63;;;4.47;;
51384;SDS011;37478;55.682;37.462;2023-11-18T06:12:41;6.28;;;4.07;;
51384;SDS011;37478;55.682;37.462;2023-11-18T06:15:07;9.43;;;4.95;;
51384;SDS011;37478;55.682;37.462;2023-11-18T06:17:34;9.02;;;4.65;;
51384;SDS011;37478;55.682;37.462;2023-11-18T06:19:59;6.75;;;4.22;;
51384;SDS011;37478;55.682;37.462;2023-11-18T06:22:24;8.80;;;4.07;;
51384;SDS011;37478;55.682;37.462;2023-11-18T06:24:50;8.50;;;4.55;;
51384;SDS011;37478;55.682;37.462;2023-11-18T06:27:16;18.02;;;5.40;;
51384;SDS011;37478;55.682;37.462;2023-11-18T06:29:43;8.07;;;3.97;;
51384;SDS011;37478;55.682;37.462;2023-11-18T06:32:08;6.05;;;4.25;;
51384;SDS011;37478;55.682;37.462;2023-11-18T06:34:33;6.97;;;3.78;;
51384;SDS011;37478;55.682;37.462;2023-11-18T06:36:59;10.63;;;4.70;;
51384;SDS011;37478;55.682;37.462;2023-11-18T06:39:24;10.80;;;4.50;;
51384;SDS011;37478;55.682;37.462;2023-11-18T06:41:55;11.00;;;4.38;;
51384;SDS011;37478;55.682;37.462;2023-11-18T06:44:21;11.35;;;4.35;;
51384;SDS011;37478;55.682;37.462;2023-11-18T06:46:49;7.45;;;3.80;;
51384;SDS011;37478;55.682;37.462;2023-11-18T06:49:15;6.93;;;3.83;;
51384;SDS011;37478;55.682;37.462;2023-11-18T06:51:41;10.00;;;4.03;;
51384;SDS011;37478;55.682;37.462;2023-11-18T06:54:06;8.95;;;4.85;;
51384;SDS011;37478;55.682;37.462;2023-11-18T06:56:38;7.88;;;4.18;;
51384;SDS011;37478;55.682;37.462;2023-11-18T06:59:06;7.20;;;4.18;;
51384;SDS011;37478;55.682;37.462;2023-11-18T07:01:32;7.68;;;3.60;;
51384;SDS011;37478;55.682;37.462;2023-11-18T07:03:58;16.83;;;4.95;;
51384;SDS011;37478;55.682;37.462;2023-11-18T07:06:23;9.00;;;3.92;;
51384;SDS011;37478;55.682;37.462;2023-11-18T07:08:51;8.00;;;4.03;;
51384;SDS011;37478;55.682;37.462;2023-11-18T07:11:17;7.97;;;4.22;;
51384;SDS011;37478;55.682;37.462;2023-11-18T07:13:43;8.88;;;4.00;;
51384;SDS011;37478;55.682;37.462;2023-11-18T07:16:09;7.45;;;4.68;;
51384;SDS011;37478;55.682;37.462;2023-11-18T07:18:34;7.88;;;3.40;;
51384;SDS011;37478;55.682;37.462;2023-11-18T07:21:00;5.07;;;3.92;;
51384;SDS011;37478;55.682;37.462;2023-11-18T07:23:25;6.15;;;4.13;;
51384;SDS011;37478;55.682;37.462;2023-11-18T07:25:51;7.72;;;4.80;;
51384;SDS011;37478;55.682;37.462;2023-11-18T07:28:16;9.25;;;4.55;;
51384;SDS011;37478;55.682;37.462;2023-11-18T07:30:44;9.23;;;3.92;;
51384;SDS011;37478;55.682;37.462;2023-11-18T07:33:12;7.55;;;3.90;;
51384;SDS011;37478;55.682;37.462;2023-11-18T07:35:37;7.90;;;3.53;;
51384;SDS011;37478;55.682;37.462;2023-11-18T07:38:03;15.80;;;4.60;;
51384;SDS011;37478;55.682;37.462;2023-11-18T07:40:28;13.00;;;3.67;;
51384;SDS011;37478;55.682;37.462;2023-11-18T07:42:56;12.98;;;4.53;;
51384;SDS011;37478;55.682;37.462;2023-11-18T07:45:22;11.60;;;4.53;;
51384;SDS011;37478;55.682;37.462;2023-11-18T07:47:51;8.52;;;4.07;;
51384;SDS011;37478;55.682;37.462;2023-11-18T07:50:19;9.23;;;4.22;;
51384;SDS011;37478;55.682;37.462;2023-11-18T07:52:49;5.63;;;4.15;;
51384;SDS011;37478;55.682;37.462;2023-11-18T07:55:15;8.82;;;4.75;;
51384;SDS011;37478;55.682;37.462;2023-11-18T07:57:40;7.20;;;4.03;;
51384;SDS011;37478;55.682;37.462;2023-11-18T08:00:07;6.82;;;4.00;;
51384;SDS011;37478;55.682;37.462;2023-11-18T08:02:34;6.97;;;4.43;;
51384;SDS011;37478;55.682;37.462;2023-11-18T08:05:01;12.27;;;5.70;;
51384;SDS011;37478;55.682;37.462;2023-11-18T08:07:28;11.15;;;5.78;;
51384;SDS011;37478;55.682;37.462;2023-11-18T08:09:53;17.83;;;4.97;;
51384;SDS011;37478;55.682;37.462;2023-11-18T08:12:18;15.50;;;5.20;;
51384;SDS011;37478;55.682;37.462;2023-11-18T08:14:45;11.93;;;5.40;;
51384;SDS011;37478;55.682;37.462;2023-11-18T08:17:10;10.85;;;5.22;;
51384;SDS011;37478;55.682;37.462;2023-11-18T08:19:37;7.70;;;4.80;;
51384;SDS011;37478;55.682;37.462;2023-11-18T08:22:02;9.23;;;4.20;;
51384;SDS011;37478;55.682;37.462;2023-11-18T08:24:29;9.38;;;4.10;;
51384;SDS011;37478;55.682;37.462;2023-11-18T08:26:54;11.80;;;5.50;;
51384;SDS011;37478;55.682;37.462;2023-11-18T08:29:20;8.15;;;4.38;;
51384;SDS011;37478;55.682;37.462;2023-11-18T08:31:46;6.82;;;4.45;;
51384;SDS011;37478;55.682;37.462;2023-11-18T08:34:11;7.78;;;4.20;;
51384;SDS011;37478;55.682;37.462;2023-11-18T08:36:36;8.50;;;4.25;;
51384;SDS011;37478;55.682;37.462;2023-11-18T08:39:02;9.77;;;4.82;;
51384;SDS011;37478;55.682;37.462;2023-11-18T08:41:28;12.48;;;4.88;;
51384;SDS011;37478;55.682;37.462;2023-11-18T08:43:56;9.13;;;4.43;;
51384;SDS011;37478;55.682;37.462;2023-11-18T08:46:22;28.30;;;5.75;;
51384;SDS011;37478;55.682;37.462;2023-11-18T08:48:47;9.30;;;5.57;;
51384;SDS011;37478;55.682;37.462;2023-11-18T08:51:13;9.77;;;5.18;;
51384;SDS011;37478;55.682;37.462;2023-11-18T08:53:39;15.77;;;4.95;;
51384;SDS011;37478;55.682;37.462;2023-11-18T08:56:08;15.55;;;5.28;;
51384;SDS011;37478;55.682;37.462;2023-11-18T08:58:38;7.55;;;5.00;;
51384;SDS011;37478;55.682;37.462;2023-11-18T09:01:05;11.45;;;5.78;;
51384;SDS011;37478;55.682;37.462;2023-11-18T09:03:40;12.93;;;4.78;;
51384;SDS011;37478;55.682;37.462;2023-11-18T09:06:08;11.70;;;5.70;;
51384;SDS011;37478;55.682;37.462;2023-11-18T09:08:42;14.38;;;5.35;;
51384;SDS011;37478;55.682;37.462;2023-11-18T09:11:09;9.57;;;5.00;;
51384;SDS011;37478;55.682;37.462;2023-11-18T09:13:44;11.30;;;4.47;;
51384;SDS011;37478;55.682;37.462;2023-11-18T09:16:12;8.60;;;4.75;;
51384;SDS011;37478;55.682;37.462;2023-11-18T09:18:41;11.02;;;5.03;;
51384;SDS011;37478;55.682;37.462;2023-11-18T09:21:10;6.15;;;4.65;;
51384;SDS011;37478;55.682;37.462;2023-11-18T09:23:45;11.85;;;4.95;;
51384;SDS011;37478;55.682;37.462;2023-11-18T09:26:13;13.13;;;6.13;;
51384;SDS011;37478;55.682;37.462;2023-11-18T09:28:39;11.05;;;6.20;;
51384;SDS011;37478;55.682;37.462;2023-11-18T09:31:05;11.40;;;5.10;;
51384;SDS011;37478;55.682;37.462;2023-11-18T09:33:31;8.77;;;5.57;;
51384;SDS011;37478;55.682;37.462;2023-11-18T09:38:34;8.75;;;4.70;;
51384;SDS011;37478;55.682;37.462;2023-11-18T09:41:05;8.70;;;4.88;;
51384;SDS011;37478;55.682;37.462;2023-11-18T09:43:39;10.02;;;4.68;;
51384;SDS011;37478;55.682;37.462;2023-11-18T09:46:10;6.18;;;3.88;;
51384;SDS011;37478;55.682;37.462;2023-11-18T09:48:45;11.02;;;4.50;;
51384;SDS011;37478;55.682;37.462;2023-11-18T09:51:23;5.70;;;3.80;;
51384;SDS011;37478;55.682;37.462;2023-11-18T09:53:50;7.13;;;4.47;;
51384;SDS011;37478;55.682;37.462;2023-11-18T09:56:31;10.40;;;5.00;;
51384;SDS011;37478;55.682;37.462;2023-11-18T09:59:19;8.52;;;4.22;;
51384;SDS011;37478;55.682;37.462;2023-11-18T10:01:53;9.43;;;4.15;;
51384;SDS011;37478;55.682;37.462;2023-11-18T10:04:22;9.45;;;3.88;;
51384;SDS011;37478;55.682;37.462;2023-11-18T10:06:49;5.65;;;3.70;;
51384;SDS011;37478;55.682;37.462;2023-11-18T10:09:18;7.20;;;3.97;;
51384;SDS011;37478;55.682;37.462;2023-11-18T10:11:53;8.85;;;3.90;;
51384;SDS011;37478;55.682;37.462;2023-11-18T10:14:23;8.55;;;4.47;;
51384;SDS011;37478;55.682;37.462;2023-11-18T10:16:49;9.30;;;4.65;;
51384;SDS011;37478;55.682;37.462;2023-11-18T10:19:19;7.60;;;4.85;;
51384;SDS011;37478;55.682;37.462;2023-11-18T10:21:44;6.75;;;4.28;;
51384;SDS011;37478;55.682;37.462;2023-11-18T10:24:13;7.15;;;4.47;;
51384;SDS011;37478;55.682;37.462;2023-11-18T10:26:40;8.00;;;4.20;;
51384;SDS011;37478;55.682;37.462;2023-11-18T10:29:05;4.63;;;3.38;;
51384;SDS011;37478;55.682;37.462;2023-11-18T10:31:33;6.57;;;3.65;;
51384;SDS011;37478;55.682;37.462;2023-11-18T10:34:00;9.27;;;4.50;;
51384;SDS011;37478;55.682;37.462;2023-11-18T10:36:25;7.00;;;4.25;;
51384;SDS011;37478;55.682;37.462;2023-11-18T10:38:51;5.75;;;4.32;;
51384;SDS011;37478;55.682;37.462;2023-11-18T10:41:20;11.55;;;4.35;;
51384;SDS011;37478;55.682;37.462;2023-11-18T10:43:46;11.15;;;4.75;;
51384;SDS011;37478;55.682;37.462;2023-11-18T10:46:13;13.85;;;5.07;;
51384;SDS011;37478;55.682;37.462;2023-11-18T10:48:48;7.53;;;4.40;;
51384;SDS011;37478;55.682;37.462;2023-11-18T10:51:17;9.70;;;5.05;;
51384;SDS011;37478;55.682;37.462;2023-11-18T10:53:46;8.88;;;4.68;;
51384;SDS011;37478;55.682;37.462;2023-11-18T10:56:23;7.20;;;5.10;;
51384;SDS011;37478;55.682;37.462;2023-11-18T10:58:52;10.43;;;5.10;;
51384;SDS011;37478;55.682;37.462;2023-11-18T11:01:27;8.75;;;4.68;;
51384;SDS011;37478;55.682;37.462;2023-11-18T11:03:55;8.88;;;5.43;;
51384;SDS011;37478;55.682;37.462;2023-11-18T11:06:24;15.43;;;4.90;;
51384;SDS011;37478;55.682;37.462;2023-11-18T11:08:50;19.45;;;6.43;;
51384;SDS011;37478;55.682;37.462;2023-11-18T11:11:17;8.40;;;6.07;;
51384;SDS011;37478;55.682;37.462;2023-11-18T11:13:46;11.82;;;5.32;;
51384;SDS011;37478;55.682;37.462;2023-11-18T11:16:12;10.23;;;5.15;;
51384;SDS011;37478;55.682;37.462;2023-11-18T11:18:44;15.98;;;6.32;;
51384;SDS011;37478;55.682;37.462;2023-11-18T11:21:16;10.05;;;4.68;;
51384;SDS011;37478;55.682;37.462;2023-11-18T11:28:52;9.77;;;4.95;;
51384;SDS011;37478;55.682;37.462;2023-11-18T11:31:38;11.23;;;5.78;;
51384;SDS011;37478;55.682;37.462;2023-11-18T11:34:05;6.53;;;5.18;;
51384;SDS011;37478;55.682;37.462;2023-11-18T11:36:41;7.47;;;5.15;;
51384;SDS011;37478;55.682;37.462;2023-11-18T11:39:07;9.90;;;4.90;;
51384;SDS011;37478;55.682;37.462;2023-11-18T11:41:40;8.68;;;5.05;;
51384;SDS011;37478;55.682;37.462;2023-11-18T11:44:09;8.82;;;5.15;;
51384;SDS011;37478;55.682;37.462;2023-11-18T11:46:35;8.98;;;4.90;;
51384;SDS011;37478;55.682;37.462;2023-11-18T11:49:02;8.68;;;4.80;;
51384;SDS011;37478;55.682;37.462;2023-11-18T11:51:43;11.90;;;4.80;;
51384;SDS011;37478;55.682;37.462;2023-11-18T11:54:15;10.63;;;4.78;;
51384;SDS011;37478;55.682;37.462;2023-11-18T11:56:44;12.95;;;5.22;;
51384;SDS011;37478;55.682;37.462;2023-11-18T11:59:12;8.43;;;4.80;;
51384;SDS011;37478;55.682;37.462;2023-11-18T12:01:37;21.83;;;6.07;;
51384;SDS011;37478;55.682;37.462;2023-11-18T12:04:03;8.43;;;4.72;;
51384;SDS011;37478;55.682;37.462;2023-11-18T12:06:37;9.63;;;5.40;;
51384;SDS011;37478;55.682;37.462;2023-11-18T12:09:06;10.88;;;5.55;;
51384;SDS011;37478;55.682;37.462;2023-11-18T12:11:34;10.80;;;7.65;;
51384;SDS011;37478;55.682;37.462;2023-11-18T12:14:11;18.02;;;5.60;;
51384;SDS011;37478;55.682;37.462;2023-11-18T12:19:38;19.38;;;6.53;;
51384;SDS011;37478;55.682;37.462;2023-11-18T12:22:15;11.15;;;5.80;;
51384;SDS011;37478;55.682;37.462;2023-11-18T12:24:44;11.68;;;5.72;;
51384;SDS011;37478;55.682;37.462;2023-11-18T12:27:12;14.77;;;6.40;;
51384;SDS011;37478;55.682;37.462;2023-11-18T12:29:42;17.92;;;7.85;;
51384;SDS011;37478;55.682;37.462;2023-11-18T12:32:08;13.65;;;6.82;;
51384;SDS011;37478;55.682;37.462;2023-11-18T12:34:50;11.98;;;7.20;;
51384;SDS011;37478;55.682;37.462;2023-11-18T12:47:39;42.35;;;7.43;;
51384;SDS011;37478;55.682;37.462;2023-11-18T12:50:08;8.13;;;5.53;;
51384;SDS011;37478;55.682;37.462;2023-11-18T12:52:42;8.48;;;5.22;;
51384;SDS011;37478;55.682;37.462;2023-11-18T12:55:09;11.13;;;5.80;;
51384;SDS011;37478;55.682;37.462;2023-11-18T12:57:34;20.98;;;9.85;;
51384;SDS011;37478;55.682;37.462;2023-11-18T13:00:03;17.98;;;7.55;;
51384;SDS011;37478;55.682;37.462;2023-11-18T13:02:31;14.02;;;6.65;;
51384;SDS011;37478;55.682;37.462;2023-11-18T13:04:57;10.75;;;6.63;;
51384;SDS011;37478;55.682;37.462;2023-11-18T13:07:22;23.55;;;7.05;;
51384;SDS011;37478;55.682;37.462;2023-11-18T13:09:50;9.98;;;5.97;;
51384;SDS011;37478;55.682;37.462;2023-11-18T13:12:15;15.70;;;6.38;;
51384;SDS011;37478;55.682;37.462;2023-11-18T13:14:42;13.50;;;6.45;;
51384;SDS011;37478;55.682;37.462;2023-11-18T13:17:11;12.95;;;6.28;;
51384;SDS011;37478;55.682;37.462;2023-11-18T13:19:37;12.23;;;6.43;;
51384;SDS011;37478;55.682;37.462;2023-11-18T13:22:04;13.20;;;6.35;;
51384;SDS011;37478;55.682;37.462;2023-11-18T13:24:30;20.75;;;7.13;;
51384;SDS011;37478;55.682;37.462;2023-11-18T13:26:55;16.48;;;6.68;;
51384;SDS011;37478;55.682;37.462;2023-11-18T13:29:22;18.17;;;7.30;;
51384;SDS011;37478;55.682;37.462;2023-11-18T13:31:48;16.55;;;7.63;;
51384;SDS011;37478;55.682;37.462;2023-11-18T13:34:14;17.10;;;6.38;;
51384;SDS011;37478;55.682;37.462;2023-11-18T13:36:40;17.38;;;7.53;;
51384;SDS011;37478;55.682;37.462;2023-11-18T13:39:08;25.95;;;8.40;;
51384;SDS011;37478;55.682;37.462;2023-11-18T13:41:41;24.67;;;9.05;;
51384;SDS011;37478;55.682;37.462;2023-11-18T13:44:07;18.00;;;7.30;;
51384;SDS011;37478;55.682;37.462;2023-11-18T13:46:32;16.17;;;8.32;;
51384;SDS011;37478;55.682;37.462;2023-11-18T13:48:57;15.57;;;7.15;;
51384;SDS011;37478;55.682;37.462;2023-11-18T13:51:24;45.35;;;19.90;;
51384;SDS011;37478;55.682;37.462;2023-11-18T13:53:50;17.95;;;8.90;;
51384;SDS011;37478;55.682;37.462;2023-11-18T13:56:18;17.40;;;8.25;;
51384;SDS011;37478;55.682;37.462;2023-11-18T13:58:43;27.00;;;8.75;;
51384;SDS011;37478;55.682;37.462;2023-11-18T14:01:10;24.58;;;8.82;;
51384;SDS011;37478;55.682;37.462;2023-11-18T14:03:37;18.77;;;9.02;;
51384;SDS011;37478;55.682;37.462;2023-11-18T14:06:06;19.45;;;8.35;;
51384;SDS011;37478;55.682;37.462;2023-11-18T14:08:32;17.38;;;7.13;;
51384;SDS011;37478;55.682;37.462;2023-11-18T14:10:59;14.55;;;6.68;;
51384;SDS011;37478;55.682;37.462;2023-11-18T14:13:25;13.43;;;8.02;;
51384;SDS011;37478;55.682;37.462;2023-11-18T14:15:53;13.57;;;7.22;;
51384;SDS011;37478;55.682;37.462;2023-11-18T14:18:22;15.45;;;7.28;;
51384;SDS011;37478;55.682;37.462;2023-11-18T14:20:47;19.23;;;7.57;;
51384;SDS011;37478;55.682;37.462;2023-11-18T14:23:14;12.75;;;7.40;;
51384;SDS011;37478;55.682;37.462;2023-11-18T14:25:39;17.55;;;7.18;;
51384;SDS011;37478;55.682;37.462;2023-11-18T14:28:04;17.48;;;7.47;;
51384;SDS011;37478;55.682;37.462;2023-11-18T14:30:30;19.27;;;6.70;;
51384;SDS011;37478;55.682;37.462;2023-11-18T14:32:55;22.98;;;8.98;;
51384;SDS011;37478;55.682;37.462;2023-11-18T14:35:21;15.35;;;7.93;;
51384;SDS011;37478;55.682;37.462;2023-11-18T14:37:47;14.75;;;7.20;;
51384;SDS011;37478;55.682;37.462;2023-11-18T14:40:13;24.08;;;9.43;;
51384;SDS011;37478;55.682;37.462;2023-11-18T14:42:42;28.85;;;10.68;;
51384;SDS011;37478;55.682;37.462;2023-11-18T14:45:11;21.88;;;7.88;;
51384;SDS011;37478;55.682;37.462;2023-11-18T14:47:37;22.15;;;8.52;;